sensor_id;sensor_type;location;lat;lon;timestamp;P1;durP1;ratioP1;P2;durP2;ratioP2
26946;SDS011;14501;52.282;10.560;2023-04-03T00:00:04;5.45;;;1.25;;
26946;SDS011;14501;52.282;10.560;2023-04-03T00:02:30;1.92;;;1.02;;
26946;SDS011;14501;52.282;10.560;2023-04-03T00:04:56;4.35;;;1.52;;
26946;SDS011;14501;52.282;10.560;2023-04-03T00:07:21;5.25;;;1.75;;
26946;SDS011;14501;52.282;10.560;2023-04-03T00:09:47;5.07;;;1.50;;
26946;SDS011;14501;52.282;10.560;2023-04-03T00:12:13;4.85;;;1.10;;
26946;SDS011;14501;52.282;10.560;2023-04-03T00:14:38;3.55;;;1.10;;
26946;SDS011;14501;52.282;10.560;2023-04-03T00:17:04;2.55;;;1.13;;
26946;SDS011;14501;52.282;10.560;2023-04-03T00:19:30;4.85;;;1.23;;
26946;SDS011;14501;52.282;10.560;2023-04-03T00:21:56;2.88;;;1.20;;
26946;SDS011;14501;52.282;10.560;2023-04-03T00:24:21;3.85;;;1.55;;
26946;SDS011;14501;52.282;10.560;2023-04-03T00:26:47;3.25;;;1.30;;
26946;SDS011;14501;52.282;10.560;2023-04-03T00:29:13;4.90;;;1.67;;
26946;SDS011;14501;52.282;10.560;2023-04-03T00:31:38;2.65;;;1.30;;
26946;SDS011;14501;52.282;10.560;2023-04-03T00:34:04;4.38;;;1.05;;
26946;SDS011;14501;52.282;10.560;2023-04-03T00:36:30;5.20;;;1.45;;
26946;SDS011;14501;52.282;10.560;2023-04-03T00:38:56;4.05;;;1.98;;
26946;SDS011;14501;52.282;10.560;2023-04-03T00:41:21;4.32;;;1.23;;
26946;SDS011;14501;52.282;10.560;2023-04-03T00:43:47;4.72;;;1.38;;
26946;SDS011;14501;52.282;10.560;2023-04-03T00:46:13;5.60;;;1.75;;
26946;SDS011;14501;52.282;10.560;2023-04-03T00:48:42;5.00;;;1.20;;
26946;SDS011;14501;52.282;10.560;2023-04-03T00:51:14;2.55;;;1.20;;
26946;SDS011;14501;52.282;10.560;2023-04-03T00:53:46;2.95;;;1.75;;
26946;SDS011;14501;52.282;10.560;2023-04-03T00:56:16;5.40;;;1.48;;
26946;SDS011;14501;52.282;10.560;2023-04-03T00:58:47;4.55;;;1.27;;
26946;SDS011;14501;52.282;10.560;2023-04-03T01:01:20;4.90;;;1.38;;
26946;SDS011;14501;52.282;10.560;2023-04-03T01:03:48;1.60;;;0.98;;
26946;SDS011;14501;52.282;10.560;2023-04-03T01:06:15;2.20;;;1.13;;
26946;SDS011;14501;52.282;10.560;2023-04-03T01:08:42;6.75;;;1.40;;
26946;SDS011;14501;52.282;10.560;2023-04-03T01:11:08;2.25;;;1.58;;
26946;SDS011;14501;52.282;10.560;2023-04-03T01:13:35;3.97;;;1.70;;
26946;SDS011;14501;52.282;10.560;2023-04-03T01:16:04;3.72;;;1.20;;
26946;SDS011;14501;52.282;10.560;2023-04-03T01:18:31;3.20;;;1.50;;
26946;SDS011;14501;52.282;10.560;2023-04-03T01:21:05;4.40;;;1.60;;
26946;SDS011;14501;52.282;10.560;2023-04-03T01:26:10;5.20;;;1.38;;
26946;SDS011;14501;52.282;10.560;2023-04-03T01:28:37;2.97;;;1.27;;
26946;SDS011;14501;52.282;10.560;2023-04-03T01:31:18;4.00;;;1.05;;
26946;SDS011;14501;52.282;10.560;2023-04-03T01:34:04;5.57;;;1.45;;
26946;SDS011;14501;52.282;10.560;2023-04-03T01:36:30;3.70;;;1.10;;
26946;SDS011;14501;52.282;10.560;2023-04-03T01:38:57;5.00;;;1.20;;
26946;SDS011;14501;52.282;10.560;2023-04-03T01:41:24;1.73;;;1.17;;
26946;SDS011;14501;52.282;10.560;2023-04-03T01:43:50;8.15;;;1.42;;
26946;SDS011;14501;52.282;10.560;2023-04-03T01:46:16;5.30;;;1.23;;
26946;SDS011;14501;52.282;10.560;2023-04-03T01:48:42;4.60;;;1.23;;
26946;SDS011;14501;52.282;10.560;2023-04-03T01:51:08;7.38;;;1.90;;
26946;SDS011;14501;52.282;10.560;2023-04-03T01:53:35;4.10;;;1.08;;
26946;SDS011;14501;52.282;10.560;2023-04-03T01:56:00;2.85;;;1.08;;
26946;SDS011;14501;52.282;10.560;2023-04-03T01:58:27;6.15;;;1.60;;
26946;SDS011;14501;52.282;10.560;2023-04-03T02:00:52;2.00;;;1.30;;
26946;SDS011;14501;52.282;10.560;2023-04-03T02:03:18;1.77;;;1.40;;
26946;SDS011;14501;52.282;10.560;2023-04-03T02:05:44;5.90;;;1.90;;
26946;SDS011;14501;52.282;10.560;2023-04-03T02:08:10;5.57;;;1.85;;
26946;SDS011;14501;52.282;10.560;2023-04-03T02:10:36;5.60;;;1.58;;
26946;SDS011;14501;52.282;10.560;2023-04-03T02:13:02;3.90;;;1.27;;
26946;SDS011;14501;52.282;10.560;2023-04-03T02:15:28;4.25;;;2.13;;
26946;SDS011;14501;52.282;10.560;2023-04-03T02:17:53;4.93;;;1.63;;
26946;SDS011;14501;52.282;10.560;2023-04-03T02:20:19;7.85;;;2.33;;
26946;SDS011;14501;52.282;10.560;2023-04-03T02:22:45;3.95;;;1.60;;
26946;SDS011;14501;52.282;10.560;2023-04-03T02:25:11;6.88;;;2.00;;
26946;SDS011;14501;52.282;10.560;2023-04-03T02:27:37;2.60;;;1.38;;
26946;SDS011;14501;52.282;10.560;2023-04-03T02:30:04;9.32;;;1.58;;
26946;SDS011;14501;52.282;10.560;2023-04-03T02:32:30;5.25;;;1.65;;
26946;SDS011;14501;52.282;10.560;2023-04-03T02:34:56;2.53;;;1.35;;
26946;SDS011;14501;52.282;10.560;2023-04-03T02:37:22;3.67;;;1.52;;
26946;SDS011;14501;52.282;10.560;2023-04-03T02:39:47;8.95;;;1.95;;
26946;SDS011;14501;52.282;10.560;2023-04-03T02:42:13;6.28;;;1.88;;
26946;SDS011;14501;52.282;10.560;2023-04-03T02:44:38;4.28;;;1.92;;
26946;SDS011;14501;52.282;10.560;2023-04-03T02:47:04;2.72;;;1.50;;
26946;SDS011;14501;52.282;10.560;2023-04-03T02:49:30;5.65;;;2.40;;
26946;SDS011;14501;52.282;10.560;2023-04-03T02:51:56;6.95;;;1.45;;
26946;SDS011;14501;52.282;10.560;2023-04-03T02:54:22;3.55;;;1.63;;
26946;SDS011;14501;52.282;10.560;2023-04-03T02:56:49;3.63;;;1.58;;
26946;SDS011;14501;52.282;10.560;2023-04-03T02:59:15;5.57;;;1.70;;
26946;SDS011;14501;52.282;10.560;2023-04-03T03:01:41;5.35;;;1.50;;
26946;SDS011;14501;52.282;10.560;2023-04-03T03:04:07;5.28;;;1.83;;
26946;SDS011;14501;52.282;10.560;2023-04-03T03:06:33;2.10;;;1.50;;
26946;SDS011;14501;52.282;10.560;2023-04-03T03:08:59;3.35;;;1.67;;
26946;SDS011;14501;52.282;10.560;2023-04-03T03:11:25;5.05;;;1.55;;
26946;SDS011;14501;52.282;10.560;2023-04-03T03:13:51;6.88;;;1.30;;
26946;SDS011;14501;52.282;10.560;2023-04-03T03:16:16;6.50;;;1.92;;
26946;SDS011;14501;52.282;10.560;2023-04-03T03:18:42;7.40;;;1.45;;
26946;SDS011;14501;52.282;10.560;2023-04-03T03:21:08;3.85;;;1.15;;
26946;SDS011;14501;52.282;10.560;2023-04-03T03:23:35;6.95;;;1.23;;
26946;SDS011;14501;52.282;10.560;2023-04-03T03:26:02;2.75;;;1.35;;
26946;SDS011;14501;52.282;10.560;2023-04-03T03:28:32;2.72;;;1.30;;
26946;SDS011;14501;52.282;10.560;2023-04-03T03:30:58;4.50;;;1.30;;
26946;SDS011;14501;52.282;10.560;2023-04-03T03:33:24;5.60;;;1.30;;
26946;SDS011;14501;52.282;10.560;2023-04-03T03:35:51;5.82;;;0.73;;
26946;SDS011;14501;52.282;10.560;2023-04-03T03:38:20;2.30;;;1.05;;
26946;SDS011;14501;52.282;10.560;2023-04-03T03:40:47;4.45;;;1.00;;
26946;SDS011;14501;52.282;10.560;2023-04-03T03:43:14;3.30;;;1.20;;
26946;SDS011;14501;52.282;10.560;2023-04-03T03:45:40;2.63;;;1.13;;
26946;SDS011;14501;52.282;10.560;2023-04-03T03:48:06;2.38;;;1.55;;
26946;SDS011;14501;52.282;10.560;2023-04-03T03:50:31;10.40;;;1.63;;
26946;SDS011;14501;52.282;10.560;2023-04-03T03:52:57;4.10;;;1.70;;
26946;SDS011;14501;52.282;10.560;2023-04-03T03:55:23;3.20;;;1.75;;
26946;SDS011;14501;52.282;10.560;2023-04-03T03:57:48;6.10;;;1.45;;
26946;SDS011;14501;52.282;10.560;2023-04-03T04:00:14;8.95;;;1.52;;
26946;SDS011;14501;52.282;10.560;2023-04-03T04:02:41;4.20;;;1.73;;
26946;SDS011;14501;52.282;10.560;2023-04-03T04:05:07;7.13;;;1.70;;
26946;SDS011;14501;52.282;10.560;2023-04-03T04:07:33;5.38;;;1.30;;
26946;SDS011;14501;52.282;10.560;2023-04-03T04:09:59;2.15;;;1.08;;
26946;SDS011;14501;52.282;10.560;2023-04-03T04:12:24;6.72;;;1.52;;
26946;SDS011;14501;52.282;10.560;2023-04-03T04:14:50;1.67;;;1.20;;
26946;SDS011;14501;52.282;10.560;2023-04-03T04:17:15;1.65;;;1.23;;
26946;SDS011;14501;52.282;10.560;2023-04-03T04:19:41;2.63;;;1.30;;
26946;SDS011;14501;52.282;10.560;2023-04-03T04:22:07;3.55;;;1.23;;
26946;SDS011;14501;52.282;10.560;2023-04-03T04:24:33;2.97;;;1.48;;
26946;SDS011;14501;52.282;10.560;2023-04-03T04:26:59;7.95;;;1.80;;
26946;SDS011;14501;52.282;10.560;2023-04-03T04:29:25;3.03;;;1.90;;
26946;SDS011;14501;52.282;10.560;2023-04-03T04:31:50;4.97;;;1.00;;
26946;SDS011;14501;52.282;10.560;2023-04-03T04:34:16;6.43;;;1.52;;
26946;SDS011;14501;52.282;10.560;2023-04-03T04:36:42;2.78;;;1.38;;
26946;SDS011;14501;52.282;10.560;2023-04-03T04:39:07;6.43;;;1.52;;
26946;SDS011;14501;52.282;10.560;2023-04-03T04:41:33;9.18;;;2.53;;
26946;SDS011;14501;52.282;10.560;2023-04-03T04:44:00;7.40;;;2.47;;
26946;SDS011;14501;52.282;10.560;2023-04-03T04:46:25;8.25;;;3.03;;
26946;SDS011;14501;52.282;10.560;2023-04-03T04:48:51;4.35;;;2.45;;
26946;SDS011;14501;52.282;10.560;2023-04-03T04:51:17;6.47;;;2.72;;
26946;SDS011;14501;52.282;10.560;2023-04-03T04:53:43;6.43;;;2.45;;
26946;SDS011;14501;52.282;10.560;2023-04-03T04:56:09;7.70;;;2.47;;
26946;SDS011;14501;52.282;10.560;2023-04-03T04:58:35;6.88;;;2.50;;
26946;SDS011;14501;52.282;10.560;2023-04-03T05:01:05;6.47;;;2.08;;
26946;SDS011;14501;52.282;10.560;2023-04-03T05:03:32;7.22;;;2.40;;
26946;SDS011;14501;52.282;10.560;2023-04-03T05:05:58;4.47;;;1.95;;
26946;SDS011;14501;52.282;10.560;2023-04-03T05:08:24;7.40;;;2.70;;
26946;SDS011;14501;52.282;10.560;2023-04-03T05:10:51;8.77;;;2.70;;
26946;SDS011;14501;52.282;10.560;2023-04-03T05:13:18;5.13;;;2.05;;
26946;SDS011;14501;52.282;10.560;2023-04-03T05:15:45;5.90;;;1.80;;
26946;SDS011;14501;52.282;10.560;2023-04-03T05:18:11;5.55;;;1.60;;
26946;SDS011;14501;52.282;10.560;2023-04-03T05:20:36;2.88;;;1.30;;
26946;SDS011;14501;52.282;10.560;2023-04-03T05:23:02;5.10;;;1.63;;
26946;SDS011;14501;52.282;10.560;2023-04-03T05:25:28;5.72;;;1.80;;
26946;SDS011;14501;52.282;10.560;2023-04-03T05:27:54;4.78;;;1.42;;
26946;SDS011;14501;52.282;10.560;2023-04-03T05:30:20;6.03;;;1.10;;
26946;SDS011;14501;52.282;10.560;2023-04-03T05:32:46;2.50;;;1.50;;
26946;SDS011;14501;52.282;10.560;2023-04-03T05:35:12;7.22;;;1.45;;
26946;SDS011;14501;52.282;10.560;2023-04-03T05:37:38;2.75;;;1.50;;
26946;SDS011;14501;52.282;10.560;2023-04-03T05:40:04;3.42;;;1.13;;
26946;SDS011;14501;52.282;10.560;2023-04-03T05:42:30;6.97;;;1.50;;
26946;SDS011;14501;52.282;10.560;2023-04-03T05:44:56;10.20;;;1.50;;
26946;SDS011;14501;52.282;10.560;2023-04-03T05:47:22;4.95;;;1.48;;
26946;SDS011;14501;52.282;10.560;2023-04-03T05:49:48;6.13;;;1.83;;
26946;SDS011;14501;52.282;10.560;2023-04-03T05:52:19;3.65;;;1.42;;
26946;SDS011;14501;52.282;10.560;2023-04-03T05:54:47;4.35;;;1.42;;
26946;SDS011;14501;52.282;10.560;2023-04-03T05:57:17;3.20;;;1.42;;
26946;SDS011;14501;52.282;10.560;2023-04-03T05:59:43;7.22;;;1.85;;
26946;SDS011;14501;52.282;10.560;2023-04-03T06:02:14;3.90;;;1.33;;
26946;SDS011;14501;52.282;10.560;2023-04-03T06:04:42;4.05;;;1.30;;
26946;SDS011;14501;52.282;10.560;2023-04-03T06:07:10;9.77;;;1.80;;
26946;SDS011;14501;52.282;10.560;2023-04-03T06:09:38;7.65;;;1.75;;
26946;SDS011;14501;52.282;10.560;2023-04-03T06:12:04;2.67;;;1.25;;
26946;SDS011;14501;52.282;10.560;2023-04-03T06:14:29;5.75;;;1.42;;
26946;SDS011;14501;52.282;10.560;2023-04-03T06:16:55;8.88;;;1.73;;
26946;SDS011;14501;52.282;10.560;2023-04-03T06:19:21;4.60;;;1.73;;
26946;SDS011;14501;52.282;10.560;2023-04-03T06:21:47;4.32;;;1.23;;
26946;SDS011;14501;52.282;10.560;2023-04-03T06:24:16;8.50;;;1.67;;
26946;SDS011;14501;52.282;10.560;2023-04-03T06:26:42;2.08;;;1.23;;
26946;SDS011;14501;52.282;10.560;2023-04-03T06:29:08;3.10;;;1.35;;
26946;SDS011;14501;52.282;10.560;2023-04-03T06:31:35;6.20;;;1.15;;
26946;SDS011;14501;52.282;10.560;2023-04-03T06:34:03;4.22;;;1.50;;
26946;SDS011;14501;52.282;10.560;2023-04-03T06:36:30;4.00;;;1.10;;
26946;SDS011;14501;52.282;10.560;2023-04-03T06:38:56;6.22;;;1.38;;
26946;SDS011;14501;52.282;10.560;2023-04-03T06:41:22;5.72;;;1.25;;
26946;SDS011;14501;52.282;10.560;2023-04-03T06:43:48;2.47;;;1.27;;
26946;SDS011;14501;52.282;10.560;2023-04-03T06:46:14;5.65;;;1.48;;
26946;SDS011;14501;52.282;10.560;2023-04-03T06:48:44;2.35;;;1.10;;
26946;SDS011;14501;52.282;10.560;2023-04-03T06:51:15;5.03;;;1.33;;
26946;SDS011;14501;52.282;10.560;2023-04-03T06:53:50;5.07;;;1.23;;
26946;SDS011;14501;52.282;10.560;2023-04-03T06:56:17;3.08;;;1.73;;
26946;SDS011;14501;52.282;10.560;2023-04-03T06:58:43;5.65;;;1.38;;
26946;SDS011;14501;52.282;10.560;2023-04-03T07:01:11;3.55;;;1.45;;
26946;SDS011;14501;52.282;10.560;2023-04-03T07:03:38;3.67;;;2.10;;
26946;SDS011;14501;52.282;10.560;2023-04-03T07:06:04;5.60;;;1.60;;
26946;SDS011;14501;52.282;10.560;2023-04-03T07:08:30;1.98;;;1.42;;
26946;SDS011;14501;52.282;10.560;2023-04-03T07:10:56;4.30;;;1.27;;
26946;SDS011;14501;52.282;10.560;2023-04-03T07:13:22;5.45;;;1.65;;
26946;SDS011;14501;52.282;10.560;2023-04-03T07:15:48;3.20;;;1.00;;
26946;SDS011;14501;52.282;10.560;2023-04-03T07:18:14;7.40;;;1.63;;
26946;SDS011;14501;52.282;10.560;2023-04-03T07:20:39;3.30;;;1.35;;
26946;SDS011;14501;52.282;10.560;2023-04-03T07:23:05;9.10;;;1.30;;
26946;SDS011;14501;52.282;10.560;2023-04-03T07:25:31;2.13;;;1.17;;
26946;SDS011;14501;52.282;10.560;2023-04-03T07:27:57;4.40;;;0.90;;
26946;SDS011;14501;52.282;10.560;2023-04-03T07:30:22;2.25;;;1.13;;
26946;SDS011;14501;52.282;10.560;2023-04-03T07:32:48;3.97;;;1.10;;
26946;SDS011;14501;52.282;10.560;2023-04-03T07:35:14;5.80;;;1.17;;
26946;SDS011;14501;52.282;10.560;2023-04-03T07:37:41;3.20;;;0.95;;
26946;SDS011;14501;52.282;10.560;2023-04-03T07:40:07;5.13;;;1.05;;
26946;SDS011;14501;52.282;10.560;2023-04-03T07:42:33;3.20;;;1.08;;
26946;SDS011;14501;52.282;10.560;2023-04-03T07:45:00;2.70;;;1.00;;
26946;SDS011;14501;52.282;10.560;2023-04-03T07:47:26;3.83;;;1.08;;
26946;SDS011;14501;52.282;10.560;2023-04-03T07:49:52;6.43;;;0.98;;
26946;SDS011;14501;52.282;10.560;2023-04-03T07:52:17;4.95;;;1.00;;
26946;SDS011;14501;52.282;10.560;2023-04-03T07:54:43;4.15;;;0.90;;
26946;SDS011;14501;52.282;10.560;2023-04-03T07:57:09;2.58;;;1.00;;
26946;SDS011;14501;52.282;10.560;2023-04-03T07:59:34;4.97;;;1.77;;
26946;SDS011;14501;52.282;10.560;2023-04-03T08:02:00;0.80;;;0.70;;
26946;SDS011;14501;52.282;10.560;2023-04-03T08:04:26;2.92;;;1.23;;
26946;SDS011;14501;52.282;10.560;2023-04-03T08:06:52;2.17;;;1.00;;
26946;SDS011;14501;52.282;10.560;2023-04-03T08:09:17;2.70;;;1.15;;
26946;SDS011;14501;52.282;10.560;2023-04-03T08:11:44;4.30;;;1.20;;
26946;SDS011;14501;52.282;10.560;2023-04-03T08:14:10;3.22;;;0.73;;
26946;SDS011;14501;52.282;10.560;2023-04-03T08:16:41;5.50;;;1.00;;
26946;SDS011;14501;52.282;10.560;2023-04-03T08:19:08;1.60;;;0.70;;
26946;SDS011;14501;52.282;10.560;2023-04-03T08:21:35;2.58;;;0.73;;
26946;SDS011;14501;52.282;10.560;2023-04-03T08:24:01;3.13;;;1.20;;
26946;SDS011;14501;52.282;10.560;2023-04-03T08:26:29;4.80;;;0.98;;
26946;SDS011;14501;52.282;10.560;2023-04-03T08:28:54;2.90;;;0.70;;
26946;SDS011;14501;52.282;10.560;2023-04-03T08:31:20;3.70;;;0.80;;
26946;SDS011;14501;52.282;10.560;2023-04-03T08:33:46;4.38;;;0.77;;
26946;SDS011;14501;52.282;10.560;2023-04-03T08:36:25;3.08;;;0.60;;
26946;SDS011;14501;52.282;10.560;2023-04-03T08:38:52;2.70;;;0.82;;
26946;SDS011;14501;52.282;10.560;2023-04-03T08:41:27;2.67;;;0.88;;
26946;SDS011;14501;52.282;10.560;2023-04-03T08:47:02;2.33;;;1.02;;
26946;SDS011;14501;52.282;10.560;2023-04-03T08:55:15;3.40;;;0.68;;
26946;SDS011;14501;52.282;10.560;2023-04-03T08:58:04;2.55;;;0.98;;
26946;SDS011;14501;52.282;10.560;2023-04-03T09:00:37;2.90;;;0.85;;
26946;SDS011;14501;52.282;10.560;2023-04-03T09:03:14;1.73;;;0.60;;
26946;SDS011;14501;52.282;10.560;2023-04-03T09:21:59;3.85;;;1.52;;
26946;SDS011;14501;52.282;10.560;2023-04-03T09:24:27;2.70;;;0.63;;
26946;SDS011;14501;52.282;10.560;2023-04-03T09:29:25;1.88;;;1.00;;
26946;SDS011;14501;52.282;10.560;2023-04-03T09:32:01;2.53;;;0.88;;
26946;SDS011;14501;52.282;10.560;2023-04-03T09:34:37;2.55;;;0.85;;
26946;SDS011;14501;52.282;10.560;2023-04-03T09:37:06;2.42;;;0.63;;
26946;SDS011;14501;52.282;10.560;2023-04-03T09:39:48;4.95;;;0.85;;
26946;SDS011;14501;52.282;10.560;2023-04-03T09:42:19;2.38;;;0.70;;
26946;SDS011;14501;52.282;10.560;2023-04-03T09:44:57;2.78;;;0.73;;
26946;SDS011;14501;52.282;10.560;2023-04-03T09:47:30;1.92;;;0.82;;
26946;SDS011;14501;52.282;10.560;2023-04-03T09:52:44;2.63;;;0.82;;
26946;SDS011;14501;52.282;10.560;2023-04-03T09:55:16;2.28;;;0.70;;
26946;SDS011;14501;52.282;10.560;2023-04-03T09:57:42;2.20;;;0.93;;
26946;SDS011;14501;52.282;10.560;2023-04-03T10:00:19;1.38;;;1.00;;
26946;SDS011;14501;52.282;10.560;2023-04-03T10:02:56;2.25;;;0.80;;
26946;SDS011;14501;52.282;10.560;2023-04-03T10:05:39;4.85;;;0.93;;
26946;SDS011;14501;52.282;10.560;2023-04-03T10:10:41;3.25;;;1.90;;
26946;SDS011;14501;52.282;10.560;2023-04-03T10:13:19;4.65;;;1.48;;
26946;SDS011;14501;52.282;10.560;2023-04-03T10:16:07;4.40;;;1.38;;
26946;SDS011;14501;52.282;10.560;2023-04-03T10:18:47;3.85;;;1.27;;
26946;SDS011;14501;52.282;10.560;2023-04-03T10:21:36;8.52;;;2.58;;
26946;SDS011;14501;52.282;10.560;2023-04-03T10:24:14;5.93;;;2.17;;
26946;SDS011;14501;52.282;10.560;2023-04-03T10:26:57;4.80;;;1.60;;
26946;SDS011;14501;52.282;10.560;2023-04-03T10:35:10;4.10;;;0.85;;
26946;SDS011;14501;52.282;10.560;2023-04-03T10:43:42;3.53;;;0.50;;
26946;SDS011;14501;52.282;10.560;2023-04-03T10:46:21;1.75;;;0.65;;
26946;SDS011;14501;52.282;10.560;2023-04-03T10:56:39;2.83;;;1.33;;
26946;SDS011;14501;52.282;10.560;2023-04-03T11:01:34;1.23;;;0.88;;
26946;SDS011;14501;52.282;10.560;2023-04-03T11:04:04;1.00;;;0.63;;
26946;SDS011;14501;52.282;10.560;2023-04-03T11:06:35;5.32;;;0.88;;
26946;SDS011;14501;52.282;10.560;2023-04-03T11:09:18;3.35;;;0.80;;
26946;SDS011;14501;52.282;10.560;2023-04-03T11:11:45;2.17;;;0.60;;
26946;SDS011;14501;52.282;10.560;2023-04-03T11:14:29;2.47;;;0.90;;
26946;SDS011;14501;52.282;10.560;2023-04-03T11:17:05;1.67;;;0.90;;
26946;SDS011;14501;52.282;10.560;2023-04-03T11:20:04;0.88;;;0.68;;
26946;SDS011;14501;52.282;10.560;2023-04-03T11:22:32;3.75;;;1.10;;
26946;SDS011;14501;52.282;10.560;2023-04-03T11:35:54;1.40;;;0.77;;
26946;SDS011;14501;52.282;10.560;2023-04-03T11:38:35;1.10;;;0.50;;
26946;SDS011;14501;52.282;10.560;2023-04-03T11:41:06;3.10;;;0.80;;
26946;SDS011;14501;52.282;10.560;2023-04-03T11:43:33;1.98;;;0.70;;
26946;SDS011;14501;52.282;10.560;2023-04-03T11:46:05;1.23;;;0.70;;
26946;SDS011;14501;52.282;10.560;2023-04-03T11:51:46;1.58;;;0.80;;
26946;SDS011;14501;52.282;10.560;2023-04-03T11:57:10;2.03;;;0.88;;
26946;SDS011;14501;52.282;10.560;2023-04-03T12:00:45;2.05;;;0.77;;
26946;SDS011;14501;52.282;10.560;2023-04-03T12:11:21;2.10;;;1.13;;
26946;SDS011;14501;52.282;10.560;2023-04-03T12:26:43;1.00;;;0.70;;
26946;SDS011;14501;52.282;10.560;2023-04-03T12:40:43;3.05;;;0.88;;
26946;SDS011;14501;52.282;10.560;2023-04-03T12:53:56;1.70;;;1.00;;
26946;SDS011;14501;52.282;10.560;2023-04-03T12:56:28;1.13;;;0.75;;
26946;SDS011;14501;52.282;10.560;2023-04-03T13:01:54;3.78;;;1.35;;
26946;SDS011;14501;52.282;10.560;2023-04-03T13:04:26;2.60;;;1.20;;
26946;SDS011;14501;52.282;10.560;2023-04-03T13:06:53;2.17;;;0.80;;
26946;SDS011;14501;52.282;10.560;2023-04-03T13:09:22;1.42;;;0.50;;
26946;SDS011;14501;52.282;10.560;2023-04-03T13:11:52;2.03;;;0.77;;
26946;SDS011;14501;52.282;10.560;2023-04-03T13:14:28;1.45;;;0.88;;
26946;SDS011;14501;52.282;10.560;2023-04-03T13:17:14;0.82;;;0.80;;
26946;SDS011;14501;52.282;10.560;2023-04-03T13:19:41;2.13;;;1.00;;
26946;SDS011;14501;52.282;10.560;2023-04-03T13:22:11;4.03;;;0.70;;
26946;SDS011;14501;52.282;10.560;2023-04-03T13:24:54;1.33;;;0.60;;
26946;SDS011;14501;52.282;10.560;2023-04-03T13:27:22;1.85;;;0.70;;
26946;SDS011;14501;52.282;10.560;2023-04-03T13:29:50;0.77;;;0.65;;
26946;SDS011;14501;52.282;10.560;2023-04-03T13:32:23;3.47;;;0.75;;
26946;SDS011;14501;52.282;10.560;2023-04-03T13:34:51;0.85;;;0.55;;
26946;SDS011;14501;52.282;10.560;2023-04-03T13:39:58;1.00;;;0.70;;
26946;SDS011;14501;52.282;10.560;2023-04-03T13:42:29;1.92;;;0.90;;
26946;SDS011;14501;52.282;10.560;2023-04-03T13:47:53;0.95;;;0.65;;
26946;SDS011;14501;52.282;10.560;2023-04-03T13:50:32;3.20;;;0.93;;
26946;SDS011;14501;52.282;10.560;2023-04-03T13:53:03;2.58;;;0.85;;
26946;SDS011;14501;52.282;10.560;2023-04-03T13:55:52;4.22;;;0.98;;
26946;SDS011;14501;52.282;10.560;2023-04-03T13:58:23;3.03;;;0.70;;
26946;SDS011;14501;52.282;10.560;2023-04-03T14:00:53;2.95;;;0.73;;
26946;SDS011;14501;52.282;10.560;2023-04-03T14:03:41;3.15;;;1.40;;
26946;SDS011;14501;52.282;10.560;2023-04-03T14:06:11;2.17;;;0.70;;
26946;SDS011;14501;52.282;10.560;2023-04-03T14:08:39;2.20;;;1.02;;
26946;SDS011;14501;52.282;10.560;2023-04-03T14:11:05;1.67;;;0.70;;
26946;SDS011;14501;52.282;10.560;2023-04-03T14:13:34;3.33;;;0.70;;
26946;SDS011;14501;52.282;10.560;2023-04-03T14:16:00;2.25;;;0.98;;
26946;SDS011;14501;52.282;10.560;2023-04-03T14:18:26;2.05;;;0.73;;
26946;SDS011;14501;52.282;10.560;2023-04-03T14:20:52;4.65;;;0.90;;
26946;SDS011;14501;52.282;10.560;2023-04-03T14:23:18;3.58;;;1.00;;
26946;SDS011;14501;52.282;10.560;2023-04-03T14:25:43;1.45;;;1.00;;
26946;SDS011;14501;52.282;10.560;2023-04-03T14:28:14;2.35;;;0.88;;
26946;SDS011;14501;52.282;10.560;2023-04-03T14:30:46;1.70;;;0.95;;
26946;SDS011;14501;52.282;10.560;2023-04-03T14:33:14;2.45;;;0.85;;
26946;SDS011;14501;52.282;10.560;2023-04-03T14:35:41;3.08;;;0.98;;
26946;SDS011;14501;52.282;10.560;2023-04-03T14:38:41;2.28;;;0.82;;
26946;SDS011;14501;52.282;10.560;2023-04-03T14:41:00;3.42;;;0.88;;
26946;SDS011;14501;52.282;10.560;2023-04-03T14:43:25;1.85;;;0.80;;
26946;SDS011;14501;52.282;10.560;2023-04-03T14:45:51;1.45;;;0.70;;
26946;SDS011;14501;52.282;10.560;2023-04-03T14:48:21;1.23;;;0.70;;
26946;SDS011;14501;52.282;10.560;2023-04-03T14:50:49;4.68;;;1.17;;
26946;SDS011;14501;52.282;10.560;2023-04-03T14:53:16;1.95;;;1.52;;
26946;SDS011;14501;52.282;10.560;2023-04-03T14:55:44;1.95;;;1.25;;
26946;SDS011;14501;52.282;10.560;2023-04-03T14:58:14;1.98;;;0.90;;
26946;SDS011;14501;52.282;10.560;2023-04-03T15:00:42;1.23;;;0.77;;
26946;SDS011;14501;52.282;10.560;2023-04-03T15:03:15;2.40;;;1.73;;
26946;SDS011;14501;52.282;10.560;2023-04-03T15:05:43;3.15;;;1.00;;
26946;SDS011;14501;52.282;10.560;2023-04-03T15:08:23;1.92;;;0.80;;
26946;SDS011;14501;52.282;10.560;2023-04-03T15:10:50;4.82;;;0.90;;
26946;SDS011;14501;52.282;10.560;2023-04-03T15:13:21;4.10;;;0.93;;
26946;SDS011;14501;52.282;10.560;2023-04-03T15:15:47;0.80;;;0.63;;
26946;SDS011;14501;52.282;10.560;2023-04-03T15:18:15;4.07;;;0.80;;
26946;SDS011;14501;52.282;10.560;2023-04-03T15:20:51;4.07;;;0.75;;
26946;SDS011;14501;52.282;10.560;2023-04-03T15:23:18;4.25;;;0.90;;
26946;SDS011;14501;52.282;10.560;2023-04-03T15:25:47;2.80;;;0.90;;
26946;SDS011;14501;52.282;10.560;2023-04-03T15:28:24;1.60;;;0.82;;
26946;SDS011;14501;52.282;10.560;2023-04-03T15:30:58;2.60;;;1.00;;
26946;SDS011;14501;52.282;10.560;2023-04-03T15:33:24;2.20;;;1.00;;
26946;SDS011;14501;52.282;10.560;2023-04-03T15:35:50;1.80;;;0.75;;
26946;SDS011;14501;52.282;10.560;2023-04-03T15:38:16;2.28;;;0.93;;
26946;SDS011;14501;52.282;10.560;2023-04-03T15:40:42;2.05;;;0.75;;
26946;SDS011;14501;52.282;10.560;2023-04-03T15:43:08;1.25;;;0.80;;
26946;SDS011;14501;52.282;10.560;2023-04-03T15:45:35;3.40;;;0.82;;
26946;SDS011;14501;52.282;10.560;2023-04-03T15:48:03;2.10;;;0.80;;
26946;SDS011;14501;52.282;10.560;2023-04-03T15:50:29;1.80;;;0.90;;
26946;SDS011;14501;52.282;10.560;2023-04-03T15:52:56;1.55;;;0.90;;
26946;SDS011;14501;52.282;10.560;2023-04-03T15:55:26;3.30;;;1.15;;
26946;SDS011;14501;52.282;10.560;2023-04-03T15:57:54;3.92;;;1.10;;
26946;SDS011;14501;52.282;10.560;2023-04-03T16:00:20;1.80;;;1.17;;
26946;SDS011;14501;52.282;10.560;2023-04-03T16:02:47;1.20;;;0.95;;
26946;SDS011;14501;52.282;10.560;2023-04-03T16:05:15;2.45;;;0.75;;
26946;SDS011;14501;52.282;10.560;2023-04-03T16:07:42;3.40;;;0.80;;
26946;SDS011;14501;52.282;10.560;2023-04-03T16:10:08;3.22;;;1.08;;
26946;SDS011;14501;52.282;10.560;2023-04-03T16:12:35;4.80;;;1.30;;
26946;SDS011;14501;52.282;10.560;2023-04-03T16:15:01;3.15;;;0.88;;
26946;SDS011;14501;52.282;10.560;2023-04-03T16:17:27;2.95;;;0.90;;
26946;SDS011;14501;52.282;10.560;2023-04-03T16:19:53;7.25;;;1.20;;
26946;SDS011;14501;52.282;10.560;2023-04-03T16:22:20;1.05;;;0.60;;
26946;SDS011;14501;52.282;10.560;2023-04-03T16:24:48;2.10;;;1.00;;
26946;SDS011;14501;52.282;10.560;2023-04-03T16:27:14;2.53;;;0.90;;
26946;SDS011;14501;52.282;10.560;2023-04-03T16:29:40;3.33;;;0.88;;
26946;SDS011;14501;52.282;10.560;2023-04-03T16:32:06;1.60;;;0.88;;
26946;SDS011;14501;52.282;10.560;2023-04-03T16:34:32;1.45;;;0.90;;
26946;SDS011;14501;52.282;10.560;2023-04-03T16:36:58;2.28;;;1.00;;
26946;SDS011;14501;52.282;10.560;2023-04-03T16:39:24;5.18;;;1.15;;
26946;SDS011;14501;52.282;10.560;2023-04-03T16:41:50;2.67;;;0.95;;
26946;SDS011;14501;52.282;10.560;2023-04-03T16:44:16;3.33;;;1.52;;
26946;SDS011;14501;52.282;10.560;2023-04-03T16:46:42;3.95;;;1.50;;